< < Back
Terminal Aerodrome Forecast


Current Version              Previous Versions:   1  2  3  4  5  6  7  8  9  

Terminal Aerodrome Forecast

920
FTUS42 KGSP 011506 AAB
TAFAVL
TAF AMD
KAVL 011506Z 0115/0212 15003KT 4SM BR BKN009 OVC025
     FM011800 16003KT P6SM OVC014
     FM021000 32005KT P6SM BKN008=

Latest METAR

875
SAUS70 KWBC 012300 RRX
MTRAVL
METAR KAVL 012254Z 16004KT 10SM SCT100 11/07 A3031 RMK AO2 SLP267
T01060067


USA.gov is the U.S. government's official web portal to all federal, state and local government web resources and services.